sensor_id;sensor_type;location;lat;lon;timestamp;pressure;altitude;pressure_sealevel;temperature;humidity
46464;BME280;32161;48.148;-1.554;2023-08-17T00:02:17;101002.97;;;21.01;95.22
46464;BME280;32161;48.148;-1.554;2023-08-17T00:04:44;101005.72;;;21.01;95.42
46464;BME280;32161;48.148;-1.554;2023-08-17T00:07:12;101006.84;;;21.00;95.29
46464;BME280;32161;48.148;-1.554;2023-08-17T00:09:41;101004.91;;;21.01;95.65
46464;BME280;32161;48.148;-1.554;2023-08-17T00:12:09;101004.09;;;21.00;95.11
46464;BME280;32161;48.148;-1.554;2023-08-17T00:14:36;101003.28;;;21.00;95.38
46464;BME280;32161;48.148;-1.554;2023-08-17T00:17:04;101002.47;;;20.99;95.66
46464;BME280;32161;48.148;-1.554;2023-08-17T00:19:31;100999.97;;;20.97;95.44
46464;BME280;32161;48.148;-1.554;2023-08-17T00:21:59;100986.97;;;20.98;96.20
46464;BME280;32161;48.148;-1.554;2023-08-17T00:24:26;100994.16;;;20.99;96.11
46464;BME280;32161;48.148;-1.554;2023-08-17T00:26:55;100997.78;;;20.94;96.47
46464;BME280;32161;48.148;-1.554;2023-08-17T00:29:23;101000.03;;;20.92;97.28
46464;BME280;32161;48.148;-1.554;2023-08-17T00:31:50;101002.81;;;20.92;96.94
46464;BME280;32161;48.148;-1.554;2023-08-17T00:34:18;100994.50;;;20.92;96.63
46464;BME280;32161;48.148;-1.554;2023-08-17T00:36:46;100995.31;;;20.93;96.72
46464;BME280;32161;48.148;-1.554;2023-08-17T00:39:13;101000.56;;;20.94;96.62
46464;BME280;32161;48.148;-1.554;2023-08-17T00:41:41;100994.19;;;20.94;96.16
46464;BME280;32161;48.148;-1.554;2023-08-17T00:44:10;100989.28;;;20.91;96.50
46464;BME280;32161;48.148;-1.554;2023-08-17T00:46:38;100994.28;;;20.89;96.54
46464;BME280;32161;48.148;-1.554;2023-08-17T00:49:07;100989.88;;;20.88;96.49
46464;BME280;32161;48.148;-1.554;2023-08-17T00:51:34;100992.63;;;20.88;96.42
46464;BME280;32161;48.148;-1.554;2023-08-17T00:54:03;100990.97;;;20.87;96.74
46464;BME280;32161;48.148;-1.554;2023-08-17T00:56:31;100994.56;;;20.87;96.56
46464;BME280;32161;48.148;-1.554;2023-08-17T00:58:58;100987.69;;;20.85;96.85
46464;BME280;32161;48.148;-1.554;2023-08-17T01:01:28;100982.75;;;20.82;97.19
46464;BME280;32161;48.148;-1.554;2023-08-17T01:03:55;100980.56;;;20.79;97.07
46464;BME280;32161;48.148;-1.554;2023-08-17T01:06:23;100982.81;;;20.77;96.82
46464;BME280;32161;48.148;-1.554;2023-08-17T01:08:51;100988.34;;;20.77;96.42
46464;BME280;32161;48.148;-1.554;2023-08-17T01:11:25;100980.94;;;20.72;96.71
46464;BME280;32161;48.148;-1.554;2023-08-17T01:14:00;100981.25;;;20.65;97.00
46464;BME280;32161;48.148;-1.554;2023-08-17T01:16:34;100986.53;;;20.62;96.60
46464;BME280;32161;48.148;-1.554;2023-08-17T01:19:08;100977.47;;;20.56;97.08
46464;BME280;32161;48.148;-1.554;2023-08-17T01:21:42;100972.56;;;20.53;97.39
46464;BME280;32161;48.148;-1.554;2023-08-17T01:24:12;100978.06;;;20.53;96.88
46464;BME280;32161;48.148;-1.554;2023-08-17T01:26:41;100979.16;;;20.52;96.88
46464;BME280;32161;48.148;-1.554;2023-08-17T01:29:09;100979.47;;;20.51;96.54
46464;BME280;32161;48.148;-1.554;2023-08-17T01:31:44;100977.31;;;20.42;96.67
46464;BME280;32161;48.148;-1.554;2023-08-17T01:34:19;100972.91;;;20.41;96.85
46464;BME280;32161;48.148;-1.554;2023-08-17T01:36:56;100981.44;;;20.45;96.50
46464;BME280;32161;48.148;-1.554;2023-08-17T01:39:32;100978.69;;;20.45;95.99
46464;BME280;32161;48.148;-1.554;2023-08-17T01:42:02;100983.59;;;20.48;95.67
46464;BME280;32161;48.148;-1.554;2023-08-17T01:44:31;100987.19;;;20.48;95.73
46464;BME280;32161;48.148;-1.554;2023-08-17T01:46:59;100979.19;;;20.47;95.82
46464;BME280;32161;48.148;-1.554;2023-08-17T01:49:27;100975.31;;;20.48;95.54
46464;BME280;32161;48.148;-1.554;2023-08-17T01:51:54;100976.13;;;20.48;96.03
46464;BME280;32161;48.148;-1.554;2023-08-17T01:54:22;100970.41;;;20.45;95.91
46464;BME280;32161;48.148;-1.554;2023-08-17T01:56:51;100970.03;;;20.22;96.73
46464;BME280;32161;48.148;-1.554;2023-08-17T01:59:19;100957.13;;;20.18;97.52
46464;BME280;32161;48.148;-1.554;2023-08-17T02:01:46;100950.22;;;20.15;97.97
46464;BME280;32161;48.148;-1.554;2023-08-17T02:04:14;100950.22;;;20.15;98.36
46464;BME280;32161;48.148;-1.554;2023-08-17T02:06:42;100957.97;;;20.13;98.32
46464;BME280;32161;48.148;-1.554;2023-08-17T02:09:10;100956.31;;;20.12;98.19
46464;BME280;32161;48.148;-1.554;2023-08-17T02:11:37;100954.38;;;20.13;97.93
46464;BME280;32161;48.148;-1.554;2023-08-17T02:14:06;100953.88;;;20.11;98.36
46464;BME280;32161;48.148;-1.554;2023-08-17T02:16:34;100951.63;;;20.13;98.51
46464;BME280;32161;48.148;-1.554;2023-08-17T02:19:01;100941.94;;;20.15;98.01
46464;BME280;32161;48.148;-1.554;2023-08-17T02:21:29;100941.94;;;20.15;98.24
46464;BME280;32161;48.148;-1.554;2023-08-17T02:23:57;100942.47;;;20.17;97.86
46464;BME280;32161;48.148;-1.554;2023-08-17T02:26:24;100940.56;;;20.18;98.09
46464;BME280;32161;48.148;-1.554;2023-08-17T02:28:52;100944.13;;;20.18;98.08
46464;BME280;32161;48.148;-1.554;2023-08-17T02:31:21;100940.25;;;20.19;98.38
46464;BME280;32161;48.148;-1.554;2023-08-17T02:33:48;100937.50;;;20.19;98.19
46464;BME280;32161;48.148;-1.554;2023-08-17T02:36:16;100938.06;;;20.16;97.77
46464;BME280;32161;48.148;-1.554;2023-08-17T02:38:43;100939.19;;;20.15;98.12
46464;BME280;32161;48.148;-1.554;2023-08-17T02:41:11;100938.13;;;20.11;98.14
46464;BME280;32161;48.148;-1.554;2023-08-17T02:43:38;100939.50;;;20.09;97.99
46464;BME280;32161;48.148;-1.554;2023-08-17T02:46:06;100942.34;;;20.04;97.39
46464;BME280;32161;48.148;-1.554;2023-08-17T02:48:35;100937.09;;;20.02;97.06
46464;BME280;32161;48.148;-1.554;2023-08-17T02:51:03;100930.22;;;19.99;96.91
46464;BME280;32161;48.148;-1.554;2023-08-17T02:53:31;100928.03;;;19.96;96.51
46464;BME280;32161;48.148;-1.554;2023-08-17T02:55:58;100926.16;;;19.92;96.48
46464;BME280;32161;48.148;-1.554;2023-08-17T02:58:26;100937.75;;;19.89;96.36
46464;BME280;32161;48.148;-1.554;2023-08-17T03:00:54;100941.63;;;19.88;96.28
46464;BME280;32161;48.148;-1.554;2023-08-17T03:03:21;100938.31;;;19.86;95.39
46464;BME280;32161;48.148;-1.554;2023-08-17T03:05:50;100936.13;;;19.83;95.24
46464;BME280;32161;48.148;-1.554;2023-08-17T03:08:18;100926.78;;;19.79;95.37
46464;BME280;32161;48.148;-1.554;2023-08-17T03:10:45;100923.25;;;19.73;95.37
46464;BME280;32161;48.148;-1.554;2023-08-17T03:13:13;100925.22;;;19.67;95.43
46464;BME280;32161;48.148;-1.554;2023-08-17T03:15:40;100925.50;;;19.66;95.67
46464;BME280;32161;48.148;-1.554;2023-08-17T03:18:08;100915.03;;;19.63;95.26
46464;BME280;32161;48.148;-1.554;2023-08-17T03:20:36;100917.53;;;19.59;95.44
46464;BME280;32161;48.148;-1.554;2023-08-17T03:23:04;100922.50;;;19.57;95.18
46464;BME280;32161;48.148;-1.554;2023-08-17T03:25:33;100919.22;;;19.55;95.45
46464;BME280;32161;48.148;-1.554;2023-08-17T03:28:01;100924.47;;;19.51;95.33
46464;BME280;32161;48.148;-1.554;2023-08-17T03:30:28;100932.72;;;19.51;95.27
46464;BME280;32161;48.148;-1.554;2023-08-17T03:32:56;100927.22;;;19.51;95.34
46464;BME280;32161;48.148;-1.554;2023-08-17T03:35:24;100926.16;;;19.47;95.09
46464;BME280;32161;48.148;-1.554;2023-08-17T03:37:51;100932.47;;;19.48;95.62
46464;BME280;32161;48.148;-1.554;2023-08-17T03:40:20;100923.97;;;19.44;95.05
46464;BME280;32161;48.148;-1.554;2023-08-17T03:42:48;100919.84;;;19.42;96.22
46464;BME280;32161;48.148;-1.554;2023-08-17T03:45:16;100919.03;;;19.36;96.50
46464;BME280;32161;48.148;-1.554;2023-08-17T03:47:44;100921.53;;;19.33;96.13
46464;BME280;32161;48.148;-1.554;2023-08-17T03:50:11;100910.25;;;19.29;95.83
46464;BME280;32161;48.148;-1.554;2023-08-17T03:52:39;100919.13;;;19.26;95.72
46464;BME280;32161;48.148;-1.554;2023-08-17T03:55:07;100920.81;;;19.22;96.34
46464;BME280;32161;48.148;-1.554;2023-08-17T03:57:36;100915.56;;;19.20;96.67
46464;BME280;32161;48.148;-1.554;2023-08-17T04:00:05;100921.63;;;19.17;96.81
46464;BME280;32161;48.148;-1.554;2023-08-17T04:02:33;100918.06;;;19.17;96.80
46464;BME280;32161;48.148;-1.554;2023-08-17T04:05:01;100919.47;;;19.14;96.82
46464;BME280;32161;48.148;-1.554;2023-08-17T04:07:28;100917.78;;;19.13;96.74
46464;BME280;32161;48.148;-1.554;2023-08-17T04:09:56;100918.63;;;19.14;96.97
46464;BME280;32161;48.148;-1.554;2023-08-17T04:12:23;100911.75;;;19.11;96.96
46464;BME280;32161;48.148;-1.554;2023-08-17T04:14:52;100924.16;;;19.09;97.38
46464;BME280;32161;48.148;-1.554;2023-08-17T04:17:20;100916.44;;;19.06;97.74
46464;BME280;32161;48.148;-1.554;2023-08-17T04:19:48;100914.53;;;19.06;97.77
46464;BME280;32161;48.148;-1.554;2023-08-17T04:22:15;100919.50;;;19.04;98.65
46464;BME280;32161;48.148;-1.554;2023-08-17T04:24:43;100918.41;;;19.00;98.37
46464;BME280;32161;48.148;-1.554;2023-08-17T04:27:11;100919.81;;;18.97;97.88
46464;BME280;32161;48.148;-1.554;2023-08-17T04:29:39;100915.69;;;18.95;97.89
46464;BME280;32161;48.148;-1.554;2023-08-17T04:32:14;100910.75;;;18.92;98.46
46464;BME280;32161;48.148;-1.554;2023-08-17T04:34:42;100916.78;;;18.94;98.98
46464;BME280;32161;48.148;-1.554;2023-08-17T04:37:09;100915.69;;;18.95;99.86
46464;BME280;32161;48.148;-1.554;2023-08-17T04:39:37;100909.34;;;18.94;100.00
46464;BME280;32161;48.148;-1.554;2023-08-17T04:42:05;100901.06;;;18.94;100.00
46464;BME280;32161;48.148;-1.554;2023-08-17T04:44:33;100903.00;;;18.94;100.00
46464;BME280;32161;48.148;-1.554;2023-08-17T04:47:01;100904.13;;;18.93;100.00
46464;BME280;32161;48.148;-1.554;2023-08-17T04:49:30;100901.66;;;18.91;100.00
46464;BME280;32161;48.148;-1.554;2023-08-17T04:51:57;100903.56;;;18.91;100.00
46464;BME280;32161;48.148;-1.554;2023-08-17T04:54:25;100906.31;;;18.91;100.00
46464;BME280;32161;48.148;-1.554;2023-08-17T04:56:52;100899.72;;;18.92;100.00
46464;BME280;32161;48.148;-1.554;2023-08-17T04:59:20;100902.22;;;18.88;100.00
46464;BME280;32161;48.148;-1.554;2023-08-17T05:01:47;100902.75;;;18.90;99.77
46464;BME280;32161;48.148;-1.554;2023-08-17T05:04:15;100899.16;;;18.90;99.04
46464;BME280;32161;48.148;-1.554;2023-08-17T05:06:44;100903.03;;;18.89;98.65
46464;BME280;32161;48.148;-1.554;2023-08-17T05:09:12;100913.50;;;18.87;99.03
46464;BME280;32161;48.148;-1.554;2023-08-17T05:11:39;100896.16;;;18.86;99.30
46464;BME280;32161;48.148;-1.554;2023-08-17T05:14:07;100908.28;;;18.85;99.49
46464;BME280;32161;48.148;-1.554;2023-08-17T05:16:35;100908.31;;;18.80;99.56
46464;BME280;32161;48.148;-1.554;2023-08-17T05:19:03;100905.00;;;18.78;100.00
46464;BME280;32161;48.148;-1.554;2023-08-17T05:21:30;100906.94;;;18.77;100.00
46464;BME280;32161;48.148;-1.554;2023-08-17T05:23:59;100914.66;;;18.81;100.00
46464;BME280;32161;48.148;-1.554;2023-08-17T05:26:27;100912.41;;;18.83;100.00
46464;BME280;32161;48.148;-1.554;2023-08-17T05:28:54;100908.56;;;18.84;100.00
46464;BME280;32161;48.148;-1.554;2023-08-17T05:31:22;100901.66;;;18.86;100.00
46464;BME280;32161;48.148;-1.554;2023-08-17T05:33:49;100909.06;;;18.91;100.00
46464;BME280;32161;48.148;-1.554;2023-08-17T05:36:17;100911.81;;;18.96;100.00
46464;BME280;32161;48.148;-1.554;2023-08-17T05:38:44;100908.50;;;18.99;100.00
46464;BME280;32161;48.148;-1.554;2023-08-17T05:41:13;100900.25;;;18.99;100.00
46464;BME280;32161;48.148;-1.554;2023-08-17T05:43:42;100896.38;;;19.00;100.00
46464;BME280;32161;48.148;-1.554;2023-08-17T05:46:10;100895.56;;;18.99;100.00
46464;BME280;32161;48.148;-1.554;2023-08-17T05:48:37;100893.06;;;19.03;100.00
46464;BME280;32161;48.148;-1.554;2023-08-17T05:51:05;100891.38;;;19.07;100.00
46464;BME280;32161;48.148;-1.554;2023-08-17T05:53:33;100885.06;;;19.07;100.00
46464;BME280;32161;48.148;-1.554;2023-08-17T05:56:00;100887.22;;;19.10;100.00
46464;BME280;32161;48.148;-1.554;2023-08-17T05:58:30;100891.34;;;19.12;100.00
46464;BME280;32161;48.148;-1.554;2023-08-17T06:01:05;100886.41;;;19.14;100.00
46464;BME280;32161;48.148;-1.554;2023-08-17T06:03:34;100879.22;;;19.18;100.00
46464;BME280;32161;48.148;-1.554;2023-08-17T06:06:02;100888.00;;;19.20;100.00
46464;BME280;32161;48.148;-1.554;2023-08-17T06:08:30;100885.19;;;19.25;100.00
46464;BME280;32161;48.148;-1.554;2023-08-17T06:10:57;100882.69;;;19.29;100.00
46464;BME280;32161;48.148;-1.554;2023-08-17T06:13:25;100880.50;;;19.31;100.00
46464;BME280;32161;48.148;-1.554;2023-08-17T06:15:56;100881.03;;;19.33;100.00
46464;BME280;32161;48.148;-1.554;2023-08-17T06:18:23;100880.19;;;19.38;100.00
46464;BME280;32161;48.148;-1.554;2023-08-17T06:20:51;100887.34;;;19.39;100.00
46464;BME280;32161;48.148;-1.554;2023-08-17T06:23:19;100884.84;;;19.42;100.00
46464;BME280;32161;48.148;-1.554;2023-08-17T06:25:47;100881.47;;;19.50;100.00
46464;BME280;32161;48.148;-1.554;2023-08-17T06:28:14;100882.84;;;19.53;100.00
46464;BME280;32161;48.148;-1.554;2023-08-17T06:30:42;100882.25;;;19.56;100.00
46464;BME280;32161;48.148;-1.554;2023-08-17T06:33:11;100887.75;;;19.61;100.00
46464;BME280;32161;48.148;-1.554;2023-08-17T06:35:39;100885.25;;;19.65;100.00
46464;BME280;32161;48.148;-1.554;2023-08-17T06:38:06;100897.38;;;19.69;100.00
46464;BME280;32161;48.148;-1.554;2023-08-17T06:40:34;100894.81;;;19.78;100.00
46464;BME280;32161;48.148;-1.554;2023-08-17T06:43:02;100895.31;;;19.85;100.00
46464;BME280;32161;48.148;-1.554;2023-08-17T06:45:31;100891.16;;;19.87;100.00
46464;BME280;32161;48.148;-1.554;2023-08-17T06:47:59;100896.88;;;19.96;100.00
46464;BME280;32161;48.148;-1.554;2023-08-17T06:50:28;100881.44;;;19.95;100.00
46464;BME280;32161;48.148;-1.554;2023-08-17T06:52:55;100886.06;;;19.99;100.00
46464;BME280;32161;48.148;-1.554;2023-08-17T06:55:23;100887.13;;;20.04;100.00
46464;BME280;32161;48.148;-1.554;2023-08-17T06:57:50;100888.19;;;20.08;100.00
46464;BME280;32161;48.148;-1.554;2023-08-17T07:00:19;100884.56;;;20.12;100.00
46464;BME280;32161;48.148;-1.554;2023-08-17T07:02:47;100880.41;;;20.15;100.00
46464;BME280;32161;48.148;-1.554;2023-08-17T07:05:15;100885.06;;;20.19;100.00
46464;BME280;32161;48.148;-1.554;2023-08-17T07:07:44;100881.41;;;20.24;100.00
46464;BME280;32161;48.148;-1.554;2023-08-17T07:10:12;100882.47;;;20.28;100.00
46464;BME280;32161;48.148;-1.554;2023-08-17T07:12:40;100879.66;;;20.33;100.00
46464;BME280;32161;48.148;-1.554;2023-08-17T07:15:08;100876.56;;;20.40;100.00
46464;BME280;32161;48.148;-1.554;2023-08-17T07:17:36;100877.59;;;20.49;100.00
46464;BME280;32161;48.148;-1.554;2023-08-17T07:20:05;100874.69;;;20.59;100.00
46464;BME280;32161;48.148;-1.554;2023-08-17T07:22:33;100875.66;;;20.73;100.00
46464;BME280;32161;48.148;-1.554;2023-08-17T07:25:03;100867.00;;;20.80;100.00
46464;BME280;32161;48.148;-1.554;2023-08-17T07:27:31;100861.88;;;20.92;100.00
46464;BME280;32161;48.148;-1.554;2023-08-17T07:29:58;100873.66;;;20.98;100.00
46464;BME280;32161;48.148;-1.554;2023-08-17T07:32:26;100866.72;;;21.01;100.00
46464;BME280;32161;48.148;-1.554;2023-08-17T07:34:53;100874.94;;;21.06;100.00
46464;BME280;32161;48.148;-1.554;2023-08-17T07:37:21;100866.59;;;21.11;100.00
46464;BME280;32161;48.148;-1.554;2023-08-17T07:39:48;100860.41;;;21.19;100.00
46464;BME280;32161;48.148;-1.554;2023-08-17T07:42:17;100865.75;;;21.29;100.00
46464;BME280;32161;48.148;-1.554;2023-08-17T07:44:45;100864.50;;;21.40;100.00
46464;BME280;32161;48.148;-1.554;2023-08-17T07:47:13;100869.59;;;21.52;100.00
46464;BME280;32161;48.148;-1.554;2023-08-17T07:49:40;100867.25;;;21.59;100.00
46464;BME280;32161;48.148;-1.554;2023-08-17T07:52:08;100867.19;;;21.64;100.00
46464;BME280;32161;48.148;-1.554;2023-08-17T07:54:36;100871.72;;;21.74;100.00
46464;BME280;32161;48.148;-1.554;2023-08-17T07:57:03;100874.34;;;21.84;100.00
46464;BME280;32161;48.148;-1.554;2023-08-17T07:59:32;100877.22;;;21.93;100.00
46464;BME280;32161;48.148;-1.554;2023-08-17T08:02:00;100878.78;;;21.99;100.00
46464;BME280;32161;48.148;-1.554;2023-08-17T08:04:27;100876.97;;;22.08;100.00
46464;BME280;32161;48.148;-1.554;2023-08-17T08:06:55;100877.91;;;22.17;100.00
46464;BME280;32161;48.148;-1.554;2023-08-17T08:09:22;100877.13;;;22.31;100.00
46464;BME280;32161;48.148;-1.554;2023-08-17T08:11:50;100875.59;;;22.38;100.00
46464;BME280;32161;48.148;-1.554;2023-08-17T08:14:18;100867.00;;;22.54;100.00
46464;BME280;32161;48.148;-1.554;2023-08-17T08:16:47;100875.94;;;22.64;99.14
46464;BME280;32161;48.148;-1.554;2023-08-17T08:19:14;100874.78;;;22.79;100.00
46464;BME280;32161;48.148;-1.554;2023-08-17T08:21:42;100874.34;;;22.86;100.00
46464;BME280;32161;48.148;-1.554;2023-08-17T08:24:09;100870.16;;;23.02;98.87
46464;BME280;32161;48.148;-1.554;2023-08-17T08:26:37;100867.16;;;23.12;98.79
46464;BME280;32161;48.148;-1.554;2023-08-17T08:29:04;100865.19;;;23.27;98.76
46464;BME280;32161;48.148;-1.554;2023-08-17T08:31:32;100858.47;;;23.42;98.59
46464;BME280;32161;48.148;-1.554;2023-08-17T08:34:01;100860.19;;;23.60;96.42
46464;BME280;32161;48.148;-1.554;2023-08-17T08:36:28;100862.47;;;23.72;97.48
46464;BME280;32161;48.148;-1.554;2023-08-17T08:38:56;100857.34;;;23.87;97.62
46464;BME280;32161;48.148;-1.554;2023-08-17T08:41:25;100855.81;;;24.04;95.15
46464;BME280;32161;48.148;-1.554;2023-08-17T08:43:53;100855.84;;;24.12;94.14
46464;BME280;32161;48.148;-1.554;2023-08-17T08:46:22;100853.44;;;24.20;93.52
46464;BME280;32161;48.148;-1.554;2023-08-17T08:48:52;100844.69;;;24.35;93.42
46464;BME280;32161;48.148;-1.554;2023-08-17T08:51:26;100848.84;;;24.46;94.41
46464;BME280;32161;48.148;-1.554;2023-08-17T08:54:01;100848.75;;;24.60;92.39
46464;BME280;32161;48.148;-1.554;2023-08-17T08:56:32;100849.22;;;24.71;92.36
46464;BME280;32161;48.148;-1.554;2023-08-17T08:59:02;100847.97;;;24.85;92.34
46464;BME280;32161;48.148;-1.554;2023-08-17T09:01:31;100842.41;;;24.94;92.46
46464;BME280;32161;48.148;-1.554;2023-08-17T09:03:59;100842.28;;;24.99;92.84
46464;BME280;32161;48.148;-1.554;2023-08-17T09:06:29;100839.19;;;25.09;91.66
46464;BME280;32161;48.148;-1.554;2023-08-17T09:08:58;100839.56;;;25.25;92.37
46464;BME280;32161;48.148;-1.554;2023-08-17T09:11:27;100825.28;;;25.36;91.01
46464;BME280;32161;48.148;-1.554;2023-08-17T09:13:54;100828.72;;;25.50;90.57
46464;BME280;32161;48.148;-1.554;2023-08-17T09:16:22;100833.13;;;25.60;89.51
46464;BME280;32161;48.148;-1.554;2023-08-17T09:18:51;100836.22;;;25.67;90.13
46464;BME280;32161;48.148;-1.554;2023-08-17T09:21:23;100831.84;;;25.83;89.32
46464;BME280;32161;48.148;-1.554;2023-08-17T09:23:53;100829.00;;;25.92;88.67
46464;BME280;32161;48.148;-1.554;2023-08-17T09:26:22;100832.13;;;25.99;90.90
46464;BME280;32161;48.148;-1.554;2023-08-17T09:28:50;100834.53;;;26.09;88.27
46464;BME280;32161;48.148;-1.554;2023-08-17T09:31:20;100828.09;;;26.17;87.49
46464;BME280;32161;48.148;-1.554;2023-08-17T09:33:50;100823.47;;;26.30;87.65
46464;BME280;32161;48.148;-1.554;2023-08-17T09:36:21;100826.22;;;26.39;87.70
46464;BME280;32161;48.148;-1.554;2023-08-17T09:38:50;100823.22;;;26.44;87.08
46464;BME280;32161;48.148;-1.554;2023-08-17T09:41:19;100824.38;;;26.51;87.23
46464;BME280;32161;48.148;-1.554;2023-08-17T09:43:47;100825.47;;;26.59;86.53
46464;BME280;32161;48.148;-1.554;2023-08-17T09:46:15;100819.56;;;26.61;86.24
46464;BME280;32161;48.148;-1.554;2023-08-17T09:48:44;100823.03;;;26.58;86.86
46464;BME280;32161;48.148;-1.554;2023-08-17T09:51:15;100822.97;;;26.66;87.40
46464;BME280;32161;48.148;-1.554;2023-08-17T09:53:43;100821.28;;;26.74;86.57
46464;BME280;32161;48.148;-1.554;2023-08-17T09:56:10;100812.03;;;26.82;87.71
46464;BME280;32161;48.148;-1.554;2023-08-17T09:58:41;100817.91;;;26.89;87.13
46464;BME280;32161;48.148;-1.554;2023-08-17T10:01:09;100826.06;;;26.94;87.37
46464;BME280;32161;48.148;-1.554;2023-08-17T10:03:42;100821.72;;;27.06;85.97
46464;BME280;32161;48.148;-1.554;2023-08-17T10:06:13;100823.19;;;27.12;86.66
46464;BME280;32161;48.148;-1.554;2023-08-17T10:08:47;100826.41;;;27.22;85.01
46464;BME280;32161;48.148;-1.554;2023-08-17T10:11:19;100819.97;;;27.43;83.25
46464;BME280;32161;48.148;-1.554;2023-08-17T10:13:54;100813.16;;;27.53;84.06
46464;BME280;32161;48.148;-1.554;2023-08-17T10:16:30;100816.41;;;27.55;83.82
46464;BME280;32161;48.148;-1.554;2023-08-17T10:19:06;100810.72;;;27.63;84.27
46464;BME280;32161;48.148;-1.554;2023-08-17T10:21:41;100809.84;;;27.71;82.38
46464;BME280;32161;48.148;-1.554;2023-08-17T10:24:11;100804.19;;;27.80;81.47
46464;BME280;32161;48.148;-1.554;2023-08-17T10:26:39;100799.06;;;27.82;82.16
46464;BME280;32161;48.148;-1.554;2023-08-17T10:29:08;100806.44;;;27.87;80.88
46464;BME280;32161;48.148;-1.554;2023-08-17T10:31:37;100805.03;;;27.93;80.75
46464;BME280;32161;48.148;-1.554;2023-08-17T10:34:05;100798.41;;;27.97;82.01
46464;BME280;32161;48.148;-1.554;2023-08-17T10:36:33;100800.06;;;28.11;80.80
46464;BME280;32161;48.148;-1.554;2023-08-17T10:39:21;100800.41;;;28.21;80.66
46464;BME280;32161;48.148;-1.554;2023-08-17T10:41:50;100804.97;;;28.26;80.95
46464;BME280;32161;48.148;-1.554;2023-08-17T10:44:38;100790.97;;;28.26;78.97
46464;BME280;32161;48.148;-1.554;2023-08-17T10:47:21;100789.13;;;28.30;79.28
46464;BME280;32161;48.148;-1.554;2023-08-17T10:49:50;100793.81;;;28.38;79.45
46464;BME280;32161;48.148;-1.554;2023-08-17T10:52:30;100793.09;;;28.54;78.01
46464;BME280;32161;48.148;-1.554;2023-08-17T10:55:01;100789.22;;;28.70;74.86
46464;BME280;32161;48.148;-1.554;2023-08-17T10:57:33;100795.75;;;28.75;74.52
46464;BME280;32161;48.148;-1.554;2023-08-17T11:00:15;100793.78;;;28.75;75.36
46464;BME280;32161;48.148;-1.554;2023-08-17T11:02:51;100793.31;;;28.73;74.24
46464;BME280;32161;48.148;-1.554;2023-08-17T11:05:39;100786.41;;;28.83;73.74
46464;BME280;32161;48.148;-1.554;2023-08-17T11:08:09;100795.38;;;28.88;75.03
46464;BME280;32161;48.148;-1.554;2023-08-17T11:10:39;100787.44;;;28.90;74.22
46464;BME280;32161;48.148;-1.554;2023-08-17T11:13:09;100797.47;;;29.04;73.62
46464;BME280;32161;48.148;-1.554;2023-08-17T11:15:40;100791.16;;;29.07;73.77
46464;BME280;32161;48.148;-1.554;2023-08-17T11:18:11;100790.41;;;29.22;71.17
46464;BME280;32161;48.148;-1.554;2023-08-17T11:20:40;100785.16;;;29.20;71.30
46464;BME280;32161;48.148;-1.554;2023-08-17T11:23:09;100776.91;;;29.12;72.60
46464;BME280;32161;48.148;-1.554;2023-08-17T11:25:37;100777.97;;;29.35;71.30
46464;BME280;32161;48.148;-1.554;2023-08-17T11:28:07;100785.78;;;29.42;70.95
46464;BME280;32161;48.148;-1.554;2023-08-17T11:30:37;100779.66;;;29.52;72.84
46464;BME280;32161;48.148;-1.554;2023-08-17T11:33:06;100777.91;;;29.60;69.82
46464;BME280;32161;48.148;-1.554;2023-08-17T11:35:34;100779.16;;;29.62;71.62
46464;BME280;32161;48.148;-1.554;2023-08-17T11:38:03;100780.53;;;29.68;69.27
46464;BME280;32161;48.148;-1.554;2023-08-17T11:40:33;100778.59;;;29.57;70.60
46464;BME280;32161;48.148;-1.554;2023-08-17T11:43:00;100771.03;;;29.57;70.32
46464;BME280;32161;48.148;-1.554;2023-08-17T11:45:27;100763.91;;;29.60;71.21
46464;BME280;32161;48.148;-1.554;2023-08-17T11:47:57;100770.41;;;29.64;71.63
46464;BME280;32161;48.148;-1.554;2023-08-17T11:50:25;100764.16;;;29.71;69.64
46464;BME280;32161;48.148;-1.554;2023-08-17T11:52:53;100752.53;;;29.68;70.56
46464;BME280;32161;48.148;-1.554;2023-08-17T11:55:20;100762.38;;;29.78;71.06
46464;BME280;32161;48.148;-1.554;2023-08-17T11:57:48;100747.81;;;29.88;70.86
46464;BME280;32161;48.148;-1.554;2023-08-17T12:00:20;100754.44;;;29.96;69.39
46464;BME280;32161;48.148;-1.554;2023-08-17T12:02:48;100759.31;;;29.99;68.91
46464;BME280;32161;48.148;-1.554;2023-08-17T12:05:22;100753.06;;;29.90;68.36
46464;BME280;32161;48.148;-1.554;2023-08-17T12:07:50;100760.47;;;29.82;68.30
46464;BME280;32161;48.148;-1.554;2023-08-17T12:10:18;100754.34;;;29.77;68.87
46464;BME280;32161;48.148;-1.554;2023-08-17T12:12:48;100751.53;;;29.77;69.01
46464;BME280;32161;48.148;-1.554;2023-08-17T12:15:17;100747.63;;;29.81;70.45
46464;BME280;32161;48.148;-1.554;2023-08-17T12:17:46;100747.19;;;29.95;71.92
46464;BME280;32161;48.148;-1.554;2023-08-17T12:20:20;100745.09;;;30.08;67.84
46464;BME280;32161;48.148;-1.554;2023-08-17T12:22:48;100735.38;;;30.18;67.69
46464;BME280;32161;48.148;-1.554;2023-08-17T12:25:16;100740.41;;;30.28;67.77
46464;BME280;32161;48.148;-1.554;2023-08-17T12:27:47;100740.03;;;30.45;67.14
46464;BME280;32161;48.148;-1.554;2023-08-17T12:30:26;100735.81;;;30.55;67.17
46464;BME280;32161;48.148;-1.554;2023-08-17T12:32:54;100724.03;;;30.65;66.31
46464;BME280;32161;48.148;-1.554;2023-08-17T12:35:23;100730.84;;;30.64;66.25
46464;BME280;32161;48.148;-1.554;2023-08-17T12:37:51;100725.72;;;30.50;66.20
46464;BME280;32161;48.148;-1.554;2023-08-17T12:40:19;100723.13;;;30.42;65.99
46464;BME280;32161;48.148;-1.554;2023-08-17T12:42:47;100724.28;;;30.40;66.46
46464;BME280;32161;48.148;-1.554;2023-08-17T12:45:15;100711.69;;;30.50;67.22
46464;BME280;32161;48.148;-1.554;2023-08-17T12:47:43;100709.84;;;30.58;68.04